Time;durP1;ratioP1;P1;durP2;ratioP2;P2;SDS_P1;SDS_P2;PMS_P1;PMS_P2;Temp;Humidity;BMP_temperature;BMP_pressure;BME280_temperature;BME280_humidity;BME280_pressure;Samples;Min_cycle;Max_cycle;Signal;HPM_P1;HPM_P2
2024/01/20 00:02:15;;;;;;;48.47;21.50;;;-2.00;97.20;;;;;;802512;179;26444;-79
2024/01/20 00:04:42;;;;;;;43.83;19.80;;;-2.10;97.50;;;;;;815148;175;26755;-79
2024/01/20 00:07:08;;;;;;;44.50;21.23;;;-2.20;97.70;;;;;;786320;180;27109;-78
2024/01/20 00:09:35;;;;;;;39.13;18.80;;;-2.20;97.90;;;;;;788734;180;26450;-77
2024/01/20 00:12:02;;;;;;;49.07;20.00;;;-2.20;98.30;;;;;;788189;180;26447;-76
2024/01/20 00:14:29;;;;;;;50.37;21.00;;;-2.20;98.60;;;;;;802668;178;26484;-78
2024/01/20 00:16:55;;;;;;;45.70;19.60;;;-2.30;98.40;;;;;;799022;179;26468;-77
2024/01/20 00:19:23;;;;;;;53.03;21.27;;;-2.40;98.50;;;;;;802764;179;26436;-76
2024/01/20 00:21:49;;;;;;;42.13;20.77;;;-2.40;98.80;;;;;;814546;176;26403;-77
2024/01/20 00:24:16;;;;;;;53.20;23.00;;;-2.40;98.90;;;;;;783498;181;26396;-78
2024/01/20 00:26:42;;;;;;;51.77;20.53;;;-2.40;99.10;;;;;;784951;180;26472;-77
2024/01/20 00:29:09;;;;;;;46.70;21.83;;;-2.50;99.10;;;;;;816189;175;26477;-79
2024/01/20 00:31:36;;;;;;;50.83;22.40;;;-2.50;99.10;;;;;;786375;181;26615;-79
2024/01/20 00:34:02;;;;;;;57.40;23.97;;;-2.40;99.60;;;;;;798883;179;26453;-76
2024/01/20 00:36:29;;;;;;;47.83;21.67;;;-2.40;99.70;;;;;;788169;180;26375;-76
2024/01/20 00:38:55;;;;;;;61.33;23.43;;;-2.40;99.90;;;;;;791025;180;26502;-78
2024/01/20 00:41:22;;;;;;;53.10;22.97;;;-2.50;99.80;;;;;;790644;180;27107;-77
2024/01/20 00:43:49;;;;;;;51.83;24.43;;;-2.50;99.90;;;;;;786958;177;26527;-77
2024/01/20 00:46:15;;;;;;;52.77;22.27;;;-2.40;99.90;;;;;;814490;172;26480;-78
2024/01/20 00:48:42;;;;;;;57.40;22.23;;;-2.40;99.90;;;;;;785777;180;26466;-78
2024/01/20 00:51:08;;;;;;;50.40;21.07;;;-2.50;99.90;;;;;;786803;180;26448;-77
2024/01/20 00:53:35;;;;;;;55.60;22.90;;;-2.50;99.90;;;;;;797937;179;26426;-76
2024/01/20 00:56:02;;;;;;;55.20;24.07;;;-2.50;99.90;;;;;;814459;175;26504;-77
2024/01/20 00:58:28;;;;;;;64.23;24.80;;;-2.50;99.90;;;;;;802240;175;26372;-76
2024/01/20 01:00:55;;;;;;;57.17;24.83;;;-2.30;99.90;;;;;;800397;175;26477;-77
2024/01/20 01:03:22;;;;;;;65.30;24.93;;;-2.30;99.90;;;;;;800728;176;26442;-78
2024/01/20 01:05:48;;;;;;;54.37;23.83;;;-2.40;99.90;;;;;;814870;175;26429;-75
2024/01/20 01:08:15;;;;;;;54.23;21.87;;;-2.40;99.90;;;;;;799621;178;26497;-76
2024/01/20 01:10:41;;;;;;;58.93;24.63;;;-2.50;99.90;;;;;;798266;178;26480;-77
2024/01/20 01:13:08;;;;;;;52.87;22.73;;;-2.50;99.90;;;;;;786160;180;26473;-78
2024/01/20 01:15:35;;;;;;;50.77;21.60;;;-2.70;99.90;;;;;;787457;180;26462;-76
2024/01/20 01:18:01;;;;;;;53.60;23.53;;;-2.70;99.90;;;;;;815732;175;26407;-77
2024/01/20 01:20:28;;;;;;;65.13;24.77;;;-2.80;99.90;;;;;;788444;180;26449;-76
2024/01/20 01:22:55;;;;;;;59.23;23.60;;;-2.80;99.90;;;;;;786128;180;27041;-75
2024/01/20 01:25:22;;;;;;;59.57;24.60;;;-2.80;99.90;;;;;;799496;179;26430;-76
2024/01/20 01:27:48;;;;;;;58.83;24.70;;;-2.90;99.90;;;;;;793916;180;26487;-78
2024/01/20 01:30:14;;;;;;;66.03;27.63;;;-2.90;99.90;;;;;;786908;182;27042;-75
2024/01/20 01:32:41;;;;;;;71.30;27.50;;;-2.90;99.90;;;;;;787199;181;26518;-78
2024/01/20 01:35:08;;;;;;;79.10;29.60;;;-2.80;99.90;;;;;;787366;181;26475;-76
2024/01/20 01:37:34;;;;;;;72.33;27.07;;;-2.60;99.90;;;;;;790765;181;26476;-77
2024/01/20 01:40:01;;;;;;;78.00;29.00;;;-2.70;99.90;;;;;;788438;179;26499;-77
2024/01/20 01:42:28;;;;;;;66.20;28.37;;;-2.60;99.90;;;;;;803989;177;26355;-77
2024/01/20 01:44:54;;;;;;;80.07;30.53;;;-2.60;99.90;;;;;;787131;177;26473;-78
2024/01/20 01:47:21;;;;;;;71.03;27.43;;;-2.70;99.90;;;;;;818915;175;26467;-78
2024/01/20 01:49:47;;;;;;;77.83;30.90;;;-2.80;99.90;;;;;;798184;178;26432;-76
2024/01/20 01:52:14;;;;;;;85.13;32.23;;;-2.80;99.90;;;;;;814836;176;26407;-79
2024/01/20 01:54:41;;;;;;;80.83;31.00;;;-2.70;99.90;;;;;;802462;178;26966;-76
2024/01/20 01:57:07;;;;;;;84.93;33.10;;;-2.70;99.90;;;;;;791407;180;26495;-76
2024/01/20 01:59:34;;;;;;;89.90;32.73;;;-2.70;99.90;;;;;;801148;179;26460;-77
2024/01/20 02:02:01;;;;;;;92.13;34.30;;;-2.60;99.90;;;;;;807144;178;26663;-79
2024/01/20 02:04:27;;;;;;;104.83;36.70;;;-2.50;99.90;;;;;;801335;179;26418;-76
2024/01/20 02:06:54;;;;;;;85.90;31.77;;;-2.60;99.90;;;;;;791885;177;27052;-77
2024/01/20 02:09:20;;;;;;;78.73;31.30;;;-2.80;99.90;;;;;;787500;182;26477;-77
2024/01/20 02:11:47;;;;;;;81.63;32.30;;;-2.90;99.90;;;;;;787452;182;26455;-78
2024/01/20 02:14:14;;;;;;;84.40;32.77;;;-2.70;99.90;;;;;;787929;180;26453;-77
2024/01/20 02:16:40;;;;;;;83.93;30.73;;;-2.70;99.90;;;;;;790498;181;26476;-76
2024/01/20 02:19:07;;;;;;;74.30;29.90;;;-2.90;99.90;;;;;;789384;181;27035;-77
2024/01/20 02:21:34;;;;;;;78.57;31.07;;;-3.00;99.90;;;;;;789388;180;26509;-77
2024/01/20 02:24:00;;;;;;;80.00;31.30;;;-3.00;99.90;;;;;;805723;174;26361;-76
2024/01/20 02:26:27;;;;;;;75.80;30.77;;;-3.00;99.90;;;;;;800674;180;26433;-77
2024/01/20 02:28:53;;;;;;;74.60;30.40;;;-3.10;99.90;;;;;;795147;177;26465;-75
2024/01/20 02:31:20;;;;;;;83.90;31.50;;;-3.00;99.90;;;;;;799698;179;26487;-77
2024/01/20 02:33:46;;;;;;;78.87;30.27;;;-3.10;99.90;;;;;;806567;171;26360;-77
2024/01/20 02:36:13;;;;;;;76.33;29.53;;;-3.10;99.90;;;;;;789871;179;26447;-79
2024/01/20 02:38:40;;;;;;;81.33;31.20;;;-3.10;99.90;;;;;;819557;174;26441;-78
2024/01/20 02:41:06;;;;;;;78.27;29.60;;;-3.00;99.90;;;;;;785335;180;26494;-75
2024/01/20 02:43:33;;;;;;;84.73;29.30;;;-3.00;99.90;;;;;;816727;176;26395;-76
2024/01/20 02:45:59;;;;;;;77.40;28.67;;;-3.00;99.90;;;;;;804569;177;26367;-77
2024/01/20 02:48:26;;;;;;;77.57;29.27;;;-3.20;99.90;;;;;;795315;177;26569;-78
2024/01/20 02:50:53;;;;;;;73.07;29.03;;;-3.10;99.90;;;;;;787696;180;28145;-78
2024/01/20 02:53:19;;;;;;;88.10;30.57;;;-3.20;99.90;;;;;;792877;180;26474;-78
2024/01/20 02:55:46;;;;;;;94.67;35.13;;;-3.20;99.90;;;;;;814238;176;26752;-77
2024/01/20 02:58:12;;;;;;;101.37;33.40;;;-3.10;99.90;;;;;;788382;181;26625;-77
2024/01/20 03:00:39;;;;;;;89.67;32.80;;;-3.10;99.90;;;;;;794603;180;26515;-77
2024/01/20 03:03:06;;;;;;;112.83;36.43;;;-3.10;99.90;;;;;;787236;179;27035;-78
2024/01/20 03:05:32;;;;;;;99.60;35.33;;;-2.90;99.90;;;;;;813815;172;26541;-78
2024/01/20 03:07:59;;;;;;;81.23;30.93;;;-3.10;99.90;;;;;;786717;180;28153;-75
2024/01/20 03:10:25;;;;;;;87.67;30.77;;;-3.20;99.90;;;;;;783176;177;26479;-78
2024/01/20 03:12:52;;;;;;;80.00;30.67;;;-3.40;99.90;;;;;;812768;176;26395;-77
2024/01/20 03:15:19;;;;;;;81.43;29.77;;;-3.50;99.90;;;;;;809113;176;26409;-77
2024/01/20 03:17:46;;;;;;;82.43;30.73;;;-3.60;99.90;;;;;;812542;176;27015;-78
2024/01/20 03:20:13;;;;;;;84.40;31.43;;;-3.50;99.90;;;;;;811240;176;26458;-78
2024/01/20 03:22:40;;;;;;;90.30;30.77;;;-3.40;99.90;;;;;;802504;177;26361;-78
2024/01/20 03:25:07;;;;;;;74.30;29.33;;;-3.40;99.90;;;;;;797110;180;26468;-79
2024/01/20 03:27:34;;;;;;;85.43;30.90;;;-3.60;99.90;;;;;;792315;178;26511;-77
2024/01/20 03:30:00;;;;;;;88.00;32.00;;;-3.60;99.90;;;;;;803187;178;26446;-79
2024/01/20 03:32:27;;;;;;;87.57;30.53;;;-3.50;99.90;;;;;;800961;178;26429;-77
2024/01/20 03:34:53;;;;;;;86.80;30.23;;;-3.60;99.90;;;;;;784626;180;26464;-78
2024/01/20 03:37:20;;;;;;;80.60;29.17;;;-3.60;99.90;;;;;;800902;179;26455;-77
2024/01/20 03:39:47;;;;;;;79.77;29.37;;;-3.60;99.90;;;;;;803186;179;26447;-79
2024/01/20 03:42:13;;;;;;;83.77;28.77;;;-3.70;99.90;;;;;;810218;178;26411;-78
2024/01/20 03:44:40;;;;;;;75.73;29.13;;;-3.60;99.90;;;;;;787635;179;26472;-77
2024/01/20 03:47:06;;;;;;;82.47;30.17;;;-3.60;99.90;;;;;;798788;179;26464;-77
2024/01/20 03:49:33;;;;;;;87.30;30.37;;;-3.70;99.80;;;;;;812646;176;26397;-76
2024/01/20 03:51:59;;;;;;;85.47;31.73;;;-3.70;99.90;;;;;;816069;176;26397;-76
2024/01/20 03:54:26;;;;;;;80.27;29.60;;;-3.70;99.90;;;;;;800832;177;26425;-77
2024/01/20 03:56:53;;;;;;;79.97;29.63;;;-3.60;99.90;;;;;;816950;176;26420;-76
2024/01/20 03:59:19;;;;;;;85.40;29.17;;;-3.60;99.90;;;;;;815716;176;26394;-77
2024/01/20 04:01:46;;;;;;;76.20;28.60;;;-3.70;99.90;;;;;;814293;176;26378;-77
2024/01/20 04:04:13;;;;;;;74.43;30.23;;;-3.80;99.90;;;;;;818624;176;26382;-75
2024/01/20 04:06:39;;;;;;;71.50;28.60;;;-3.70;99.90;;;;;;816359;176;26397;-79
2024/01/20 04:09:06;;;;;;;66.87;28.27;;;-3.70;99.90;;;;;;812231;176;26409;-78
2024/01/20 04:11:32;;;;;;;84.90;30.47;;;-3.70;99.90;;;;;;813574;177;26933;-78
2024/01/20 04:13:59;;;;;;;79.03;29.03;;;-3.70;99.90;;;;;;815936;176;26414;-79
2024/01/20 04:16:26;;;;;;;75.93;27.40;;;-3.60;99.90;;;;;;817985;175;26409;-77
2024/01/20 04:18:52;;;;;;;79.77;28.63;;;-3.70;99.90;;;;;;816130;176;26433;-78
2024/01/20 04:21:19;;;;;;;77.87;28.60;;;-3.80;99.90;;;;;;815836;176;26393;-77
2024/01/20 04:23:46;;;;;;;82.83;28.60;;;-3.80;99.90;;;;;;813197;176;26401;-78
2024/01/20 04:26:13;;;;;;;78.40;27.00;;;-3.80;99.90;;;;;;813901;176;26437;-78
2024/01/20 04:28:39;;;;;;;70.50;27.10;;;-3.80;99.90;;;;;;816457;176;26435;-78
2024/01/20 04:31:06;;;;;;;71.53;28.00;;;-3.90;99.40;;;;;;811595;176;26392;-77
2024/01/20 04:33:34;;;;;;;74.50;29.13;;;-3.90;99.30;;;;;;799547;178;26356;-77
2024/01/20 04:36:00;;;;;;;73.80;26.60;;;-3.90;99.30;;;;;;787876;179;26543;-77
2024/01/20 04:38:27;;;;;;;78.00;28.40;;;-3.90;99.30;;;;;;802078;176;26455;-78
2024/01/20 04:40:53;;;;;;;71.80;27.03;;;-3.80;99.70;;;;;;803220;178;26422;-77
2024/01/20 04:43:20;;;;;;;71.10;27.30;;;-3.90;99.30;;;;;;790375;180;26459;-77
2024/01/20 04:45:46;;;;;;;75.03;26.90;;;-3.90;99.30;;;;;;822122;174;26453;-76
2024/01/20 04:48:13;;;;;;;70.97;27.73;;;-4.00;99.40;;;;;;789711;182;26467;-77
2024/01/20 04:50:40;;;;;;;80.47;28.50;;;-3.90;99.70;;;;;;813500;176;26397;-74
2024/01/20 04:53:06;;;;;;;89.43;28.60;;;-3.90;99.60;;;;;;811039;174;26356;-77
2024/01/20 04:55:33;;;;;;;73.83;27.87;;;-3.80;99.80;;;;;;818096;175;26397;-77
2024/01/20 04:57:59;;;;;;;70.00;25.20;;;-3.80;99.90;;;;;;815957;175;26502;-78
2024/01/20 05:00:26;;;;;;;78.10;28.73;;;-3.90;99.70;;;;;;789939;180;26456;-76
2024/01/20 05:02:53;;;;;;;72.53;26.93;;;-3.90;99.70;;;;;;790152;180;26482;-75
2024/01/20 05:05:19;;;;;;;62.07;25.17;;;-3.90;99.60;;;;;;802164;178;26369;-78
2024/01/20 05:07:46;;;;;;;75.30;26.07;;;-3.90;99.50;;;;;;792607;179;26525;-77
2024/01/20 05:10:12;;;;;;;83.73;26.97;;;-4.00;99.40;;;;;;787833;180;26510;-79
2024/01/20 05:12:39;;;;;;;78.57;26.90;;;-4.00;99.40;;;;;;798623;179;26430;-77
2024/01/20 05:15:10;;;;;;;75.27;26.90;;;-3.80;99.90;;;;;;784375;180;26515;-77
2024/01/20 05:17:32;;;;;;;64.37;23.87;;;-3.80;99.90;;;;;;817392;175;26425;-76
2024/01/20 05:19:59;;;;;;;85.93;26.87;;;-3.90;99.20;;;;;;816979;175;26400;-78
2024/01/20 05:22:26;;;;;;;78.13;25.40;;;-3.80;99.40;;;;;;817764;175;26398;-77
2024/01/20 05:24:52;;;;;;;67.40;24.67;;;-3.80;99.70;;;;;;816358;175;26421;-77
2024/01/20 05:27:19;;;;;;;65.40;25.50;;;-4.00;98.90;;;;;;789485;182;26544;-77
2024/01/20 05:29:45;;;;;;;67.20;24.73;;;-4.10;98.90;;;;;;812830;176;28050;-77
2024/01/20 05:32:12;;;;;;;63.20;24.87;;;-4.10;98.80;;;;;;797043;178;26426;-77
2024/01/20 05:34:39;;;;;;;65.47;25.33;;;-4.10;98.90;;;;;;818722;175;26452;-78
2024/01/20 05:37:05;;;;;;;70.50;26.30;;;-4.10;99.00;;;;;;799596;178;27002;-78
2024/01/20 05:39:32;;;;;;;77.43;27.73;;;-4.20;99.30;;;;;;800810;179;26430;-76
2024/01/20 05:41:58;;;;;;;69.83;26.70;;;-4.10;99.40;;;;;;801727;179;26453;-78
2024/01/20 05:44:25;;;;;;;78.10;25.77;;;-4.20;99.20;;;;;;808928;175;26374;-78
2024/01/20 05:46:52;;;;;;;76.30;25.80;;;-4.20;99.20;;;;;;797905;179;26525;-77
2024/01/20 05:49:18;;;;;;;68.50;25.07;;;-4.20;99.30;;;;;;800357;178;26496;-78
2024/01/20 05:51:45;;;;;;;79.13;26.43;;;-4.10;99.50;;;;;;790015;179;26447;-78
2024/01/20 05:54:11;;;;;;;66.13;24.43;;;-4.00;99.30;;;;;;790973;180;26465;-78
2024/01/20 05:56:38;;;;;;;73.10;25.90;;;-4.10;99.40;;;;;;798980;180;26423;-77
2024/01/20 05:59:05;;;;;;;61.63;23.53;;;-4.20;99.20;;;;;;818130;176;26410;-79
2024/01/20 06:01:31;;;;;;;61.87;23.47;;;-4.30;98.90;;;;;;793266;181;26466;-77
2024/01/20 06:03:58;;;;;;;73.43;26.13;;;-4.20;99.00;;;;;;803128;174;26456;-76
2024/01/20 06:06:24;;;;;;;75.43;26.93;;;-4.10;99.40;;;;;;817569;176;26415;-78
2024/01/20 06:08:51;;;;;;;74.13;27.13;;;-4.20;99.20;;;;;;786867;181;26506;-77
2024/01/20 06:11:18;;;;;;;75.17;26.73;;;-4.10;99.50;;;;;;820341;175;26380;-75
2024/01/20 06:13:44;;;;;;;70.13;25.13;;;-4.20;99.30;;;;;;812350;171;26348;-80
2024/01/20 06:16:11;;;;;;;59.20;24.83;;;-4.10;99.30;;;;;;799486;176;26502;-79
2024/01/20 06:18:37;;;;;;;63.90;23.73;;;-4.20;99.10;;;;;;799440;176;26486;-78
2024/01/20 06:21:04;;;;;;;57.00;24.43;;;-4.20;99.00;;;;;;802186;174;26412;-79
2024/01/20 06:23:31;;;;;;;61.80;22.97;;;-4.20;99.20;;;;;;818508;171;26421;-78
2024/01/20 06:25:59;;;;;;;61.87;24.73;;;-4.20;99.10;;;;;;807952;171;26410;-78
2024/01/20 06:28:24;;;;;;;70.17;25.50;;;-4.10;99.50;;;;;;816840;170;26434;-79
2024/01/20 06:30:51;;;;;;;65.93;25.17;;;-4.20;99.10;;;;;;784084;176;26476;-79
2024/01/20 06:33:17;;;;;;;66.73;24.30;;;-4.20;98.80;;;;;;801077;172;26472;-79
2024/01/20 06:35:44;;;;;;;66.70;24.57;;;-4.30;98.70;;;;;;801440;174;26411;-77
2024/01/20 06:38:10;;;;;;;60.17;21.37;;;-4.40;98.10;;;;;;813348;171;26527;-78
2024/01/20 06:40:37;;;;;;;60.10;22.50;;;-4.30;98.00;;;;;;815381;176;26401;-78
2024/01/20 06:43:04;;;;;;;61.60;23.50;;;-4.30;98.30;;;;;;813929;177;26495;-76
2024/01/20 06:45:33;;;;;;;71.17;24.37;;;-4.30;98.40;;;;;;813615;176;26491;-77
2024/01/20 06:47:57;;;;;;;60.50;22.17;;;-4.10;99.30;;;;;;816656;176;26435;-78
2024/01/20 06:50:23;;;;;;;61.07;21.80;;;-4.20;98.70;;;;;;813837;176;26965;-78
2024/01/20 06:52:50;;;;;;;58.13;24.17;;;-4.20;98.60;;;;;;812142;176;26400;-78
2024/01/20 06:55:17;;;;;;;59.57;21.33;;;-4.30;98.30;;;;;;814458;175;26402;-78
2024/01/20 06:57:43;;;;;;;62.87;23.57;;;-4.30;97.90;;;;;;810385;176;26442;-77
2024/01/20 07:00:11;;;;;;;56.53;22.37;;;-4.30;98.10;;;;;;784396;179;26468;-78
2024/01/20 07:02:37;;;;;;;58.10;21.63;;;-4.20;98.00;;;;;;797194;176;26541;-78
2024/01/20 07:05:04;;;;;;;58.93;22.27;;;-4.30;97.70;;;;;;809668;177;26374;-78
2024/01/20 07:07:31;;;;;;;58.90;22.20;;;-4.30;98.00;;;;;;804952;178;26444;-77
2024/01/20 07:09:57;;;;;;;55.97;21.47;;;-4.30;98.10;;;;;;800801;177;26431;-77
2024/01/20 07:12:24;;;;;;;60.80;22.07;;;-4.30;98.00;;;;;;816241;176;26402;-77
2024/01/20 07:14:51;;;;;;;55.43;21.13;;;-4.40;97.40;;;;;;784392;179;26400;-77
2024/01/20 07:17:17;;;;;;;58.90;21.00;;;-4.40;97.20;;;;;;816912;175;26421;-74
2024/01/20 07:19:44;;;;;;;57.77;21.80;;;-4.40;97.20;;;;;;787782;182;26448;-77
2024/01/20 07:22:10;;;;;;;51.23;19.73;;;-4.40;97.20;;;;;;809079;176;26444;-77
2024/01/20 07:24:37;;;;;;;61.17;21.43;;;-4.30;97.60;;;;;;787286;181;26970;-77
2024/01/20 07:27:04;;;;;;;54.07;19.20;;;-4.30;97.70;;;;;;784286;180;26480;-77
2024/01/20 07:29:30;;;;;;;58.80;21.70;;;-4.30;97.40;;;;;;785099;180;26460;-77
2024/01/20 07:31:57;;;;;;;61.07;21.00;;;-4.30;97.70;;;;;;797989;179;26529;-78
2024/01/20 07:34:23;;;;;;;64.53;22.70;;;-4.20;98.10;;;;;;804065;178;26611;-77
2024/01/20 07:36:50;;;;;;;62.80;22.20;;;-4.20;98.20;;;;;;797829;179;27064;-77
2024/01/20 07:39:17;;;;;;;55.57;20.80;;;-4.30;97.50;;;;;;815073;175;26492;-76
2024/01/20 07:41:43;;;;;;;54.97;20.33;;;-4.30;97.40;;;;;;798496;177;26448;-78
2024/01/20 07:44:10;;;;;;;55.63;21.30;;;-4.30;97.30;;;;;;789879;179;26479;-76
2024/01/20 07:46:37;;;;;;;53.67;20.20;;;-4.30;97.10;;;;;;802323;178;26388;-77
2024/01/20 07:49:04;;;;;;;60.07;21.43;;;-4.30;96.90;;;;;;799630;179;26457;-78
2024/01/20 07:51:30;;;;;;;53.13;20.83;;;-4.30;97.00;;;;;;800109;179;26580;-78
2024/01/20 07:53:57;;;;;;;61.00;21.53;;;-4.30;97.00;;;;;;781217;180;27013;-78
2024/01/20 07:56:24;;;;;;;56.13;21.50;;;-4.30;97.40;;;;;;813366;172;26393;-76
2024/01/20 07:58:50;;;;;;;60.10;21.83;;;-4.30;96.90;;;;;;814343;175;27048;-77
2024/01/20 08:01:17;;;;;;;61.77;23.00;;;-4.30;96.90;;;;;;797172;178;26479;-76
2024/01/20 08:03:44;;;;;;;48.60;18.07;;;-4.20;96.90;;;;;;813368;175;27036;-76
2024/01/20 08:06:11;;;;;;;63.27;21.50;;;-4.20;96.60;;;;;;814451;174;27001;-77
2024/01/20 08:08:37;;;;;;;57.30;21.63;;;-4.20;96.50;;;;;;798396;178;26548;-77
2024/01/20 08:11:04;;;;;;;58.07;21.67;;;-4.20;96.90;;;;;;780428;184;26454;-77
2024/01/20 08:13:31;;;;;;;50.03;19.63;;;-4.10;97.00;;;;;;815788;174;26398;-77
2024/01/20 08:15:57;;;;;;;56.83;21.37;;;-4.00;97.20;;;;;;798171;175;27012;-76
2024/01/20 08:18:24;;;;;;;66.10;22.63;;;-4.00;96.90;;;;;;789195;180;26548;-75
2024/01/20 08:20:50;;;;;;;56.13;21.37;;;-3.80;97.40;;;;;;801010;179;26451;-78
2024/01/20 08:23:17;;;;;;;59.77;21.77;;;-3.70;97.40;;;;;;802200;179;26471;-78
2024/01/20 08:25:44;;;;;;;55.77;19.70;;;-3.70;97.40;;;;;;803422;177;26431;-75
2024/01/20 08:28:10;;;;;;;55.07;20.07;;;-3.60;96.90;;;;;;800536;179;27036;-77
2024/01/20 08:30:37;;;;;;;53.97;21.60;;;-3.60;96.80;;;;;;797735;180;26459;-77
2024/01/20 08:33:04;;;;;;;58.47;21.67;;;-3.60;96.70;;;;;;795425;180;26454;-76
2024/01/20 08:35:30;;;;;;;59.20;20.83;;;-3.70;96.10;;;;;;787748;181;26485;-77
2024/01/20 08:37:57;;;;;;;53.67;20.30;;;-3.50;96.30;;;;;;785744;180;26607;-77
2024/01/20 08:40:24;;;;;;;53.87;21.17;;;-3.60;95.70;;;;;;785859;180;27304;-77
2024/01/20 08:42:51;;;;;;;44.50;18.30;;;-3.60;95.30;;;;;;786026;180;26536;-77
2024/01/20 08:45:17;;;;;;;50.87;20.20;;;-3.60;95.30;;;;;;786116;180;27524;-78
2024/01/20 08:47:44;;;;;;;48.73;19.40;;;-3.60;95.00;;;;;;810168;176;26524;-77
2024/01/20 08:50:10;;;;;;;48.90;19.77;;;-3.60;94.90;;;;;;784550;181;27133;-76
2024/01/20 08:52:38;;;;;;;51.73;18.10;;;-3.50;95.20;;;;;;797899;179;27014;-77
2024/01/20 08:55:04;;;;;;;58.17;21.03;;;-3.40;95.10;;;;;;810200;176;26433;-76
2024/01/20 08:57:32;;;;;;;46.77;19.13;;;-3.30;95.50;;;;;;798753;176;27070;-75
2024/01/20 08:59:57;;;;;;;54.80;20.57;;;-3.10;96.30;;;;;;785327;180;26534;-75
2024/01/20 09:02:24;;;;;;;49.13;19.47;;;-3.10;94.90;;;;;;812985;175;26502;-77
2024/01/20 09:04:50;;;;;;;54.90;20.43;;;-3.20;94.00;;;;;;809693;176;26506;-76
2024/01/20 09:07:17;;;;;;;49.53;20.53;;;-3.20;94.30;;;;;;809286;176;26477;-77
2024/01/20 09:09:44;;;;;;;53.13;20.60;;;-3.20;94.40;;;;;;809364;176;26410;-78
2024/01/20 09:12:10;;;;;;;53.07;21.07;;;-3.00;95.20;;;;;;809510;175;26451;-76
2024/01/20 09:14:37;;;;;;;58.60;22.90;;;-2.90;95.20;;;;;;795152;179;26755;-77
2024/01/20 09:17:04;;;;;;;50.23;17.43;;;-2.90;94.50;;;;;;813548;175;26450;-80
2024/01/20 09:19:30;;;;;;;52.37;21.40;;;-2.80;94.20;;;;;;799474;175;26464;-77
2024/01/20 09:21:57;;;;;;;40.73;18.47;;;-2.80;94.00;;;;;;786513;180;26534;-79
2024/01/20 09:24:23;;;;;;;54.93;21.90;;;-2.70;93.70;;;;;;819656;173;26420;-77
2024/01/20 09:26:50;;;;;;;56.47;22.93;;;-2.60;94.00;;;;;;806102;176;26492;-78
2024/01/20 09:29:17;;;;;;;51.83;19.67;;;-2.40;94.50;;;;;;802152;178;26957;-78
2024/01/20 09:31:43;;;;;;;56.47;21.47;;;-2.30;94.20;;;;;;790961;180;26469;-76
2024/01/20 09:34:10;;;;;;;50.53;20.07;;;-2.40;93.10;;;;;;799483;180;26455;-78
2024/01/20 09:36:37;;;;;;;57.67;21.03;;;-2.30;92.90;;;;;;802016;174;26420;-78
2024/01/20 09:39:04;;;;;;;55.90;21.53;;;-2.20;92.60;;;;;;802755;177;26436;-79
2024/01/20 09:41:30;;;;;;;53.57;21.37;;;-2.00;93.60;;;;;;816479;175;26428;-78
2024/01/20 09:43:58;;;;;;;59.53;20.83;;;-1.90;93.60;;;;;;815111;175;26501;-78
2024/01/20 09:46:23;;;;;;;50.50;21.07;;;-1.80;93.00;;;;;;786938;179;26498;-78
2024/01/20 09:48:55;;;;;;;46.90;20.30;;;-1.70;92.50;;;;;;796455;179;26527;-78
2024/01/20 09:51:16;;;;;;;53.30;22.20;;;-1.60;92.40;;;;;;795883;177;26714;-78
2024/01/20 09:53:43;;;;;;;50.27;19.20;;;-1.70;92.00;;;;;;787576;180;26497;-77
2024/01/20 09:56:09;;;;;;;48.90;20.07;;;-1.60;92.40;;;;;;788263;180;27765;-79
2024/01/20 09:58:36;;;;;;;55.73;21.47;;;-1.60;91.70;;;;;;799176;179;26485;-79
2024/01/20 10:01:02;;;;;;;49.13;21.00;;;-1.70;91.50;;;;;;795771;177;27087;-79
2024/01/20 10:03:29;;;;;;;51.10;21.23;;;-1.60;92.50;;;;;;789831;179;26465;-78
2024/01/20 10:05:57;;;;;;;54.50;21.27;;;-1.50;92.40;;;;;;801532;177;26487;-77
2024/01/20 10:08:22;;;;;;;54.67;21.37;;;-1.30;92.50;;;;;;819549;175;26655;-78
2024/01/20 10:10:49;;;;;;;58.90;21.60;;;-1.30;91.90;;;;;;817277;175;26421;-77
2024/01/20 10:13:16;;;;;;;50.07;22.13;;;-1.40;91.30;;;;;;787099;180;26492;-78
2024/01/20 10:15:42;;;;;;;51.63;21.27;;;-1.30;91.60;;;;;;786221;182;26450;-75
2024/01/20 10:18:10;;;;;;;55.90;21.23;;;-1.30;91.50;;;;;;798144;180;26489;-79
2024/01/20 10:20:36;;;;;;;53.00;21.67;;;-1.30;91.80;;;;;;798423;179;26453;-80
2024/01/20 10:23:02;;;;;;;53.77;22.17;;;-1.10;92.20;;;;;;788830;180;26469;-79
2024/01/20 10:25:29;;;;;;;51.80;21.03;;;-1.20;91.40;;;;;;789509;181;26486;-76
2024/01/20 10:27:56;;;;;;;42.07;18.50;;;-1.20;91.40;;;;;;789396;182;26502;-78
2024/01/20 10:30:24;;;;;;;50.90;20.53;;;-1.20;91.30;;;;;;789529;182;26474;-78
2024/01/20 10:32:49;;;;;;;51.37;21.40;;;-1.30;91.30;;;;;;788364;181;26457;-78
2024/01/20 10:35:16;;;;;;;50.83;22.13;;;-1.10;91.90;;;;;;819955;174;26457;-79
2024/01/20 10:37:44;;;;;;;49.30;20.13;;;-1.00;91.40;;;;;;819266;175;26432;-78
2024/01/20 10:40:10;;;;;;;49.00;19.33;;;-1.00;91.40;;;;;;792429;180;26442;-78
2024/01/20 10:42:37;;;;;;;49.20;20.07;;;-0.90;91.40;;;;;;792556;180;26553;-79
2024/01/20 10:45:05;;;;;;;49.43;19.27;;;-0.90;91.30;;;;;;807939;177;26441;-78
2024/01/20 10:47:36;;;;;;;47.07;20.27;;;-0.70;91.80;;;;;;786355;183;26489;-78
2024/01/20 10:50:03;;;;;;;45.00;19.13;;;-0.50;92.30;;;;;;802479;177;26437;-77
2024/01/20 10:52:30;;;;;;;48.30;21.60;;;0.10;91.50;;;;;;795747;179;26462;-77
2024/01/20 10:54:56;;;;;;;38.60;18.73;;;1.40;89.00;;;;;;789056;181;26489;-78
2024/01/20 10:57:23;;;;;;;38.50;17.63;;;2.90;80.30;;;;;;788404;179;27075;-78
2024/01/20 10:59:50;;;;;;;42.17;18.13;;;4.20;75.80;;;;;;790930;181;26483;-77
2024/01/20 11:02:16;;;;;;;34.30;16.40;;;5.20;70.50;;;;;;789510;181;26511;-78
2024/01/20 11:04:44;;;;;;;37.90;17.47;;;6.40;64.40;;;;;;790019;181;26503;-79
2024/01/20 11:07:09;;;;;;;37.70;18.00;;;6.60;60.10;;;;;;791633;181;26527;-77
2024/01/20 11:09:36;;;;;;;39.03;18.03;;;6.50;59.70;;;;;;801429;179;26454;-78
2024/01/20 11:12:03;;;;;;;36.80;18.90;;;6.90;59.60;;;;;;809213;177;26371;-76
2024/01/20 11:14:30;;;;;;;39.60;18.70;;;6.60;58.20;;;;;;799157;180;26468;-78
2024/01/20 11:16:57;;;;;;;39.37;18.67;;;6.60;61.60;;;;;;789869;180;26487;-78
2024/01/20 11:19:23;;;;;;;34.20;17.60;;;7.30;58.10;;;;;;816555;175;26408;-78
2024/01/20 11:21:50;;;;;;;33.70;17.23;;;7.50;56.10;;;;;;789585;181;26527;-79
2024/01/20 11:24:16;;;;;;;36.27;17.63;;;8.00;55.90;;;;;;808401;178;26928;-78
2024/01/20 11:26:43;;;;;;;36.03;17.07;;;7.60;54.70;;;;;;783471;179;26484;-79
2024/01/20 11:29:10;;;;;;;34.53;16.43;;;7.80;56.80;;;;;;815715;175;26396;-79
2024/01/20 11:31:36;;;;;;;37.30;18.93;;;7.70;55.50;;;;;;800525;176;26434;-78
2024/01/20 11:34:04;;;;;;;40.20;19.07;;;7.60;53.20;;;;;;811503;177;26419;-78
2024/01/20 11:36:30;;;;;;;34.80;17.13;;;7.10;57.00;;;;;;813947;176;26410;-77
2024/01/20 11:38:57;;;;;;;38.40;17.67;;;7.70;58.30;;;;;;813580;173;26417;-79
2024/01/20 11:41:23;;;;;;;37.67;18.20;;;8.10;55.80;;;;;;809933;176;26392;-77
2024/01/20 11:43:49;;;;;;;33.40;17.30;;;8.50;53.30;;;;;;810105;178;26398;-78
2024/01/20 11:46:16;;;;;;;36.00;18.07;;;8.20;54.50;;;;;;810102;178;26397;-76
2024/01/20 11:48:43;;;;;;;33.43;18.97;;;8.10;53.20;;;;;;816604;175;26454;-79
2024/01/20 11:51:10;;;;;;;32.60;16.53;;;8.20;52.60;;;;;;791158;179;26373;-79
2024/01/20 11:53:37;;;;;;;40.87;18.07;;;7.80;52.80;;;;;;809872;176;26358;-77
2024/01/20 11:56:03;;;;;;;40.13;18.70;;;7.80;54.50;;;;;;809569;174;26374;-79
2024/01/20 11:58:30;;;;;;;46.20;22.00;;;8.30;55.40;;;;;;793512;179;26471;-78
2024/01/20 12:00:57;;;;;;;48.77;22.67;;;9.00;50.90;;;;;;817207;171;26461;-77
2024/01/20 12:03:23;;;;;;;45.03;21.40;;;9.40;50.50;;;;;;789584;178;26502;-78
2024/01/20 12:05:51;;;;;;;37.53;17.87;;;9.90;48.00;;;;;;809766;177;26474;-77
2024/01/20 12:08:17;;;;;;;39.03;18.83;;;9.90;48.50;;;;;;816048;171;26416;-78
2024/01/20 12:10:43;;;;;;;33.40;17.33;;;10.80;44.10;;;;;;798352;179;26432;-79
2024/01/20 12:13:11;;;;;;;34.47;16.83;;;10.40;47.40;;;;;;800052;180;26445;-79
2024/01/20 12:15:38;;;;;;;36.77;18.73;;;10.70;46.70;;;;;;799693;180;26451;-79
2024/01/20 12:18:05;;;;;;;34.37;18.80;;;11.00;44.30;;;;;;794907;180;26533;-79
2024/01/20 12:20:32;;;;;;;35.17;19.53;;;10.30;48.80;;;;;;798088;179;26453;-79
2024/01/20 12:22:58;;;;;;;31.57;17.87;;;10.40;46.30;;;;;;789731;180;26468;-78
2024/01/20 12:25:25;;;;;;;42.93;20.50;;;10.20;46.40;;;;;;788727;183;26442;-78